Time;durP1;ratioP1;P1;durP2;ratioP2;P2;SDS_P1;SDS_P2;PMS_P1;PMS_P2;Temp;Humidity;BMP_temperature;BMP_pressure;BME280_temperature;BME280_humidity;BME280_pressure;Samples;Min_cycle;Max_cycle;Signal;HPM_P1;HPM_P2
2022/06/15 00:01:39;;;;;;;6.93;3.42;;;;;;;21.67;44.00;102115.38;4831622;29;20030;-80
2022/06/15 00:04:05;;;;;;;6.78;3.08;;;;;;;21.70;43.93;102115.34;4831768;29;20033;-80
2022/06/15 00:06:31;;;;;;;8.98;3.50;;;;;;;21.66;43.84;102116.25;4846224;29;20033;-80
2022/06/15 00:08:58;;;;;;;5.95;3.53;;;;;;;21.60;43.78;102116.28;4831338;29;20041;-80
2022/06/15 00:11:28;;;;;;;6.60;4.03;;;;;;;21.61;44.11;102118.03;4847075;29;20030;-81
2022/06/15 00:13:56;;;;;;;7.93;4.38;;;;;;;21.60;44.16;102122.41;4848413;29;20085;-80
2022/06/15 00:16:21;;;;;;;8.32;4.32;;;;;;;21.59;44.47;102111.94;4854871;29;20032;-81
2022/06/15 00:18:47;;;;;;;9.57;4.70;;;;;;;21.54;44.25;102107.59;4822686;29;20025;-81
2022/06/15 00:21:16;;;;;;;7.45;4.13;;;;;;;21.59;44.44;102111.94;4849956;29;20081;-81
2022/06/15 00:23:41;;;;;;;9.95;4.57;;;;;;;21.51;44.44;102110.25;4848884;29;20438;-80
2022/06/15 00:26:07;;;;;;;8.02;4.28;;;;;;;21.47;44.49;102111.13;4817683;29;20044;-80
2022/06/15 00:28:34;;;;;;;8.07;4.20;;;;;;;21.52;44.43;102116.34;4851003;29;20037;-80
2022/06/15 00:31:00;;;;;;;8.63;4.03;;;;;;;21.60;44.35;102118.91;4850751;29;20041;-80
2022/06/15 00:33:27;;;;;;;8.50;3.53;;;;;;;21.58;44.48;102111.06;4849374;29;20038;-80
2022/06/15 00:35:58;;;;;;;5.75;3.72;;;;;;;21.61;44.44;102113.66;4866031;29;20032;-80
2022/06/15 00:38:25;;;;;;;7.43;3.78;;;;;;;21.59;44.54;102112.78;4854561;29;20045;-80
2022/06/15 00:40:50;;;;;;;7.78;4.15;;;;;;;21.62;44.44;102115.38;4854094;29;20385;-81
2022/06/15 00:43:28;;;;;;;6.20;3.67;;;;;;;21.62;44.29;102117.13;4831424;29;20044;-80
2022/06/15 00:45:54;;;;;;;8.00;3.78;;;;;;;21.59;44.62;102117.16;4846888;29;20120;-80
2022/06/15 00:48:19;;;;;;;6.60;3.35;;;;;;;21.61;44.46;102111.03;4845951;29;20451;-81
2022/06/15 00:50:45;;;;;;;5.45;3.97;;;;;;;21.60;44.55;102104.06;4846033;29;20057;-80
2022/06/15 00:53:11;;;;;;;7.90;3.55;;;;;;;21.62;44.34;102120.63;4846999;29;20025;-80
2022/06/15 00:55:37;;;;;;;7.70;3.63;;;;;;;21.65;44.55;102117.13;4816725;29;20030;-81
2022/06/15 00:58:07;;;;;;;8.30;4.13;;;;;;;21.64;44.60;102110.13;4817421;29;20093;-80
2022/06/15 01:00:33;;;;;;;6.53;3.90;;;;;;;21.63;44.62;102117.13;4847394;29;20029;-80
2022/06/15 01:02:58;;;;;;;7.63;3.80;;;;;;;21.61;44.78;102110.16;4847421;29;20025;-80
2022/06/15 01:05:39;;;;;;;9.68;4.35;;;;;;;21.52;44.67;102104.09;4832968;29;20105;-80
2022/06/15 01:08:17;;;;;;;12.82;5.40;;;;;;;21.53;44.76;102097.09;4847888;29;20026;-80
2022/06/15 01:10:45;;;;;;;11.38;5.15;;;;;;;21.49;45.05;102098.91;4848217;29;20033;-81
2022/06/15 01:13:49;;;;;;;10.63;5.50;;;;;;;21.48;44.88;102099.75;4848005;29;20037;-80
2022/06/15 01:16:23;;;;;;;7.85;4.85;;;;;;;21.50;44.92;102105.84;4848966;29;20034;-81
2022/06/15 01:19:06;;;;;;;7.70;4.53;;;;;;;21.50;45.04;102103.25;4864021;29;20045;-77
2022/06/15 01:21:41;;;;;;;8.98;4.32;;;;;;;21.51;44.84;102102.38;4860904;29;20388;-78
2022/06/15 01:24:25;;;;;;;8.32;4.55;;;;;;;21.43;45.22;102093.69;4844015;29;20040;-77
2022/06/15 01:26:59;;;;;;;9.35;4.30;;;;;;;21.44;45.11;102092.78;4861370;29;20559;-77
2022/06/15 01:29:58;;;;;;;7.03;3.80;;;;;;;21.50;45.07;102097.13;4861059;29;20041;-77
2022/06/15 01:32:29;;;;;;;7.68;3.67;;;;;;;21.47;45.02;102086.66;4844375;29;20038;-77
2022/06/15 01:35:14;;;;;;;7.22;4.00;;;;;;;21.44;45.30;102086.69;4844239;29;20112;-78
2022/06/15 01:38:03;;;;;;;7.38;3.63;;;;;;;21.46;45.12;102085.81;4844117;29;20029;-77
2022/06/15 01:40:36;;;;;;;9.52;4.32;;;;;;;21.43;45.30;102091.06;4860785;29;20036;-78
2022/06/15 01:43:07;;;;;;;8.02;3.80;;;;;;;21.43;45.21;102085.84;4860765;29;20108;-78
2022/06/15 01:45:35;;;;;;;6.65;3.75;;;;;;;21.46;45.05;102082.31;4860818;29;20032;-78
2022/06/15 01:48:06;;;;;;;7.43;3.53;;;;;;;21.43;45.25;102080.59;4844199;29;20025;-78
2022/06/15 01:50:35;;;;;;;6.18;3.55;;;;;;;;;;4843826;29;20171;-78
2022/06/15 01:53:23;;;;;;;5.82;3.72;;;;;;;21.48;45.01;102086.66;4844160;29;20121;-77
2022/06/15 01:55:55;;;;;;;5.43;3.28;;;;;;;21.43;45.31;102082.34;4843526;29;20046;-78
2022/06/15 01:58:24;;;;;;;4.63;3.42;;;;;;;21.42;45.29;102073.59;4861433;29;20109;-78
2022/06/15 02:00:57;;;;;;;8.90;3.72;;;;;;;21.46;45.24;102064.00;4864006;29;20482;-78
2022/06/15 02:03:35;;;;;;;6.63;3.42;;;;;;;21.43;45.24;102062.25;4847294;29;20037;-78
2022/06/15 02:06:14;;;;;;;6.50;3.30;;;;;;;;;;4847503;29;20404;-78
2022/06/15 02:08:46;;;;;;;7.00;3.38;;;;;;;21.53;44.86;102049.97;4847412;29;20030;-78
2022/06/15 02:11:18;;;;;;;5.38;2.90;;;;;;;21.52;45.08;102054.34;4863708;29;20393;-78
2022/06/15 02:13:58;;;;;;;6.80;3.20;;;;;;;21.54;44.81;102049.97;4847139;29;20059;-78
2022/06/15 02:16:32;;;;;;;5.97;3.10;;;;;;;21.55;44.85;102054.31;4846880;29;20025;-79
2022/06/15 02:19:00;;;;;;;4.28;2.90;;;;;;;21.55;44.88;102046.44;4863391;29;20029;-78
2022/06/15 02:21:26;;;;;;;5.25;3.13;;;;;;;21.55;44.99;102048.22;4863592;29;20408;-78
2022/06/15 02:23:56;;;;;;;5.18;3.30;;;;;;;21.57;44.87;102046.44;4863614;29;20054;-79
2022/06/15 02:26:29;;;;;;;4.55;2.85;;;;;;;21.57;44.94;102044.69;4846940;29;20116;-78
2022/06/15 02:29:00;;;;;;;5.88;2.97;;;;;;;21.55;44.82;102040.34;4846792;29;20468;-79
2022/06/15 02:31:26;;;;;;;7.47;3.47;;;;;;;21.52;44.84;102043.88;4846852;29;20041;-78
2022/06/15 02:33:54;;;;;;;9.45;3.05;;;;;;;21.54;44.88;102033.38;4863238;29;20025;-79
2022/06/15 02:36:21;;;;;;;5.45;3.08;;;;;;;21.51;44.72;102034.28;4863369;29;20025;-79
2022/06/15 02:38:49;;;;;;;5.40;3.20;;;;;;;21.51;44.95;102034.28;4846935;29;20492;-78
2022/06/15 02:41:19;;;;;;;9.35;3.00;;;;;;;21.54;44.71;102031.63;4863347;29;20052;-78
2022/06/15 02:43:49;;;;;;;4.60;3.00;;;;;;;21.50;44.84;102037.75;4846811;29;20089;-78
2022/06/15 02:46:16;;;;;;;6.03;3.22;;;;;;;21.53;44.75;102032.50;4863150;29;20077;-78
2022/06/15 02:48:42;;;;;;;5.57;2.97;;;;;;;21.48;44.91;102036.91;4863009;29;20041;-78
2022/06/15 02:51:26;;;;;;;5.15;2.85;;;;;;;21.43;44.89;102027.34;4862865;29;20500;-78
2022/06/15 02:53:56;;;;;;;7.20;2.85;;;;;;;21.42;44.85;102031.69;4846484;29;20128;-78
2022/06/15 02:56:23;;;;;;;6.07;2.90;;;;;;;21.45;44.76;102036.03;4846381;29;20116;-78
2022/06/15 02:58:49;;;;;;;5.15;3.10;;;;;;;21.37;44.89;102030.84;4846363;29;20100;-78
2022/06/15 03:01:16;;;;;;;7.38;3.03;;;;;;;21.35;45.09;102030.84;4862788;29;20029;-78
2022/06/15 03:03:41;;;;;;;5.68;3.08;;;;;;;21.36;45.20;102031.69;4863129;29;20029;-78
2022/06/15 03:06:14;;;;;;;4.15;2.90;;;;;;;21.36;45.04;102036.94;4816194;29;20477;-78
2022/06/15 03:08:39;;;;;;;4.67;2.70;;;;;;;21.39;44.92;102041.31;4846146;29;20523;-79
2022/06/15 03:11:05;;;;;;;5.15;2.88;;;;;;;21.41;45.06;102043.06;4845239;29;20033;-78
2022/06/15 03:13:30;;;;;;;4.63;2.90;;;;;;;21.34;45.06;102039.59;4863165;29;20528;-78
2022/06/15 03:15:58;;;;;;;5.20;3.00;;;;;;;21.38;44.82;102043.03;4846286;29;20477;-78
2022/06/15 03:18:25;;;;;;;5.28;2.88;;;;;;;21.35;44.86;102038.69;4862662;29;20054;-78
2022/06/15 03:20:50;;;;;;;5.18;2.97;;;;;;;21.37;44.85;102039.56;4862528;29;20029;-77
2022/06/15 03:23:15;;;;;;;5.57;2.92;;;;;;;21.33;44.95;102040.44;4862546;29;20077;-78
2022/06/15 03:25:41;;;;;;;4.68;2.70;;;;;;;21.30;45.40;102040.47;4845897;29;20041;-78
2022/06/15 03:28:06;;;;;;;4.25;2.75;;;;;;;21.29;45.14;102040.47;4845619;29;20033;-78
2022/06/15 03:30:32;;;;;;;4.10;2.50;;;;;;;21.29;45.21;102045.72;4862288;29;20362;-78
2022/06/15 03:32:57;;;;;;;4.97;2.40;;;;;;;21.29;45.16;102035.25;4862344;29;20033;-78
2022/06/15 03:35:22;;;;;;;6.50;2.78;;;;;;;21.34;45.17;102038.72;4845987;29;20038;-78
2022/06/15 03:37:49;;;;;;;5.35;2.88;;;;;;;21.36;45.05;102044.78;4830545;29;20041;-78
2022/06/15 03:40:15;;;;;;;3.80;2.67;;;;;;;21.36;44.97;102043.06;4845609;29;20029;-78
2022/06/15 03:42:40;;;;;;;6.75;2.65;;;;;;;21.36;45.16;102044.78;4845916;29;20044;-78
2022/06/15 03:45:07;;;;;;;6.07;2.50;;;;;;;21.30;45.24;102037.00;4815283;29;20049;-78
2022/06/15 03:47:32;;;;;;;3.90;2.47;;;;;;;21.31;45.26;102038.72;4830352;29;20033;-78
2022/06/15 03:49:58;;;;;;;4.78;2.78;;;;;;;21.28;45.27;102039.63;4845247;29;20109;-78
2022/06/15 03:52:26;;;;;;;5.47;3.10;;;;;;;21.28;45.33;102037.00;4830188;29;20046;-78
2022/06/15 03:54:51;;;;;;;6.05;3.08;;;;;;;21.29;45.29;102040.47;4845243;29;20476;-78
2022/06/15 03:57:18;;;;;;;8.05;3.35;;;;;;;21.36;45.02;102042.19;4845300;29;20029;-78
2022/06/15 03:59:44;;;;;;;6.82;3.13;;;;;;;21.33;45.18;102036.97;4861774;29;20060;-78
2022/06/15 04:02:10;;;;;;;5.68;3.20;;;;;;;21.37;45.08;102038.69;4861849;29;20057;-78
2022/06/15 04:04:35;;;;;;;8.32;3.63;;;;;;;21.35;45.04;102035.22;4845540;29;20371;-78
2022/06/15 04:07:02;;;;;;;9.73;3.60;;;;;;;21.39;45.10;102036.06;4861812;29;20081;-78
2022/06/15 04:09:28;;;;;;;9.18;3.83;;;;;;;21.34;45.21;102046.59;4862076;29;20105;-78
2022/06/15 04:12:08;;;;;;;5.97;3.28;;;;;;;21.33;45.29;102042.22;4829907;29;20058;-78
2022/06/15 04:14:35;;;;;;;6.57;3.42;;;;;;;21.30;45.25;102045.72;4861510;29;20033;-77
2022/06/15 04:17:01;;;;;;;6.50;2.78;;;;;;;21.25;45.19;102044.00;4844780;29;20033;-77
2022/06/15 04:19:30;;;;;;;5.78;2.92;;;;;;;21.23;45.45;102046.66;4844752;29;20040;-78
2022/06/15 04:21:56;;;;;;;7.43;3.05;;;;;;;21.25;45.35;102041.38;4844980;29;20033;-77
2022/06/15 04:24:25;;;;;;;4.72;2.92;;;;;;;21.26;45.40;102037.91;4861432;29;20060;-78
2022/06/15 04:26:51;;;;;;;9.40;3.97;;;;;;;21.27;45.41;102032.63;4861411;29;20021;-78
2022/06/15 04:29:18;;;;;;;6.95;3.50;;;;;;;21.29;45.70;102033.50;4844759;29;20048;-78
2022/06/15 04:31:43;;;;;;;5.97;3.28;;;;;;;21.33;45.25;102035.22;4829693;29;20066;-78
2022/06/15 04:34:11;;;;;;;7.97;3.42;;;;;;;21.37;45.44;102036.06;4844888;29;20037;-78
2022/06/15 04:36:38;;;;;;;7.70;3.40;;;;;;;21.43;45.17;102038.69;4861388;29;20085;-78
2022/06/15 04:39:05;;;;;;;6.80;3.60;;;;;;;21.53;45.02;102034.25;4844780;29;20025;-78
2022/06/15 04:41:32;;;;;;;6.93;3.60;;;;;;;21.62;44.99;102043.78;4861551;29;20033;-76
2022/06/15 04:43:58;;;;;;;8.07;3.90;;;;;;;21.73;44.67;102037.59;4844551;29;20057;-79
2022/06/15 04:46:23;;;;;;;7.75;3.80;;;;;;;21.95;44.41;102040.06;4829574;29;20068;-77
2022/06/15 04:48:52;;;;;;;7.53;3.13;;;;;;;22.10;43.78;102041.63;4861419;29;20045;-79
2022/06/15 04:51:24;;;;;;;4.88;3.10;;;;;;;22.24;43.78;102046.81;4845024;29;20049;-82
2022/06/15 04:53:52;;;;;;;6.18;3.17;;;;;;;22.34;43.44;102046.69;4844533;29;20104;-76
2022/06/15 04:56:17;;;;;;;6.55;2.90;;;;;;;22.46;43.16;102040.44;4829708;29;20041;-80
2022/06/15 04:58:43;;;;;;;5.13;2.92;;;;;;;22.56;43.22;102044.69;4844498;29;20044;-77
2022/06/15 05:01:09;;;;;;;6.75;2.80;;;;;;;22.56;43.21;102046.47;4844580;29;20441;-78
2022/06/15 05:03:37;;;;;;;7.05;2.90;;;;;;;22.59;43.46;102036.78;4861291;29;20116;-77
2022/06/15 05:06:08;;;;;;;9.98;2.95;;;;;;;22.66;42.81;102039.34;4860913;29;20030;-77
2022/06/15 05:08:33;;;;;;;8.15;3.80;;;;;;;22.71;42.95;102046.28;4844329;29;20025;-78
2022/06/15 05:11:00;;;;;;;4.75;2.83;;;;;;;22.79;42.74;102044.41;4861224;29;20173;-77
2022/06/15 05:13:26;;;;;;;5.72;2.70;;;;;;;22.85;42.99;102040.00;4845344;29;20496;-77
2022/06/15 05:15:51;;;;;;;6.15;3.35;;;;;;;22.67;43.20;102044.59;4844398;29;20128;-76
2022/06/15 05:18:17;;;;;;;11.57;4.03;;;;;;;22.34;43.42;102045.78;4829229;29;20170;-83
2022/06/15 05:20:42;;;;;;;11.23;4.63;;;;;;;22.26;43.64;102055.53;4844319;29;20028;-77
2022/06/15 05:23:13;;;;;;;11.02;4.40;;;;;;;22.14;43.63;102044.22;4829258;29;20469;-78
2022/06/15 05:25:39;;;;;;;13.20;5.18;;;;;;;22.13;43.58;102058.22;4860635;29;20102;-78
2022/06/15 05:28:05;;;;;;;9.60;4.63;;;;;;;22.17;43.41;102057.31;4860848;29;20492;-77
2022/06/15 05:30:30;;;;;;;8.85;4.10;;;;;;;22.20;43.36;102061.66;4844505;29;20541;-77
2022/06/15 05:32:56;;;;;;;14.45;4.88;;;;;;;22.36;43.16;102052.78;4861090;29;20030;-76
2022/06/15 05:35:21;;;;;;;10.18;4.28;;;;;;;22.45;42.60;102049.22;4864441;29;20029;-76
2022/06/15 05:37:47;;;;;;;12.68;4.28;;;;;;;22.49;42.38;102045.63;4864470;29;20033;-76
2022/06/15 05:40:12;;;;;;;10.73;4.40;;;;;;;22.56;42.51;102056.97;4847831;29;20104;-76
2022/06/15 05:42:38;;;;;;;10.25;4.10;;;;;;;22.61;41.96;102039.41;4864300;29;20030;-76
2022/06/15 05:45:04;;;;;;;10.50;4.32;;;;;;;22.59;42.30;102043.78;4847763;29;20030;-76
2022/06/15 05:47:30;;;;;;;11.63;4.50;;;;;;;22.64;41.86;102047.22;4817490;29;20037;-76
2022/06/15 05:49:57;;;;;;;10.00;3.90;;;;;;;22.67;41.77;102057.69;4847309;29;20046;-75
2022/06/15 05:52:22;;;;;;;11.23;4.00;;;;;;;22.71;41.78;102050.63;4864103;29;20025;-76
2022/06/15 05:54:47;;;;;;;8.77;3.65;;;;;;;22.73;41.94;102049.75;4847457;29;20029;-76
2022/06/15 05:57:18;;;;;;;8.13;3.60;;;;;;;22.78;41.88;102054.94;4847491;29;20033;-77
2022/06/15 05:59:44;;;;;;;9.70;3.45;;;;;;;22.84;41.37;102054.00;4863939;29;20484;-76
2022/06/15 06:02:11;;;;;;;11.52;3.95;;;;;;;22.84;41.38;102054.84;4847515;29;20159;-76
2022/06/15 06:04:36;;;;;;;7.45;3.40;;;;;;;22.93;41.37;102054.75;4847147;29;20050;-77
2022/06/15 06:07:02;;;;;;;9.75;3.60;;;;;;;23.02;40.89;102052.91;4863624;29;20515;-76
2022/06/15 06:09:28;;;;;;;11.15;3.40;;;;;;;23.11;41.09;102052.81;4832063;29;20059;-76
2022/06/15 06:11:54;;;;;;;8.25;3.30;;;;;;;23.18;41.14;102057.94;4847484;29;20030;-76
2022/06/15 06:14:20;;;;;;;7.07;3.03;;;;;;;23.27;40.89;102048.22;4847142;29;20029;-76
2022/06/15 06:16:46;;;;;;;10.70;3.60;;;;;;;23.35;40.75;102056.84;4863902;29;20057;-76
2022/06/15 06:19:11;;;;;;;8.30;3.50;;;;;;;23.38;40.71;102056.78;4847040;29;20041;-76
2022/06/15 06:21:37;;;;;;;8.18;3.08;;;;;;;23.37;40.68;102055.94;4831811;29;20429;-76
2022/06/15 06:24:02;;;;;;;8.10;3.13;;;;;;;23.37;40.58;102065.56;4863481;29;20041;-76
2022/06/15 06:26:31;;;;;;;7.43;3.03;;;;;;;23.37;41.20;102062.94;4863462;29;20092;-75
2022/06/15 06:28:57;;;;;;;7.43;2.63;;;;;;;23.38;41.22;102067.28;4863736;29;20041;-76
2022/06/15 06:31:24;;;;;;;7.20;2.70;;;;;;;23.41;41.34;102059.41;4863435;29;20365;-75
2022/06/15 06:33:50;;;;;;;8.20;2.50;;;;;;;23.49;41.21;102067.16;4846953;29;20030;-75
2022/06/15 06:36:21;;;;;;;6.10;2.67;;;;;;;23.52;41.38;102061.88;4846686;29;20030;-75
2022/06/15 06:38:47;;;;;;;6.45;2.30;;;;;;;23.55;41.33;102065.28;4846679;29;20484;-75
2022/06/15 06:41:18;;;;;;;4.90;2.10;;;;;;;23.52;41.17;102061.88;4846836;29;20030;-75
2022/06/15 06:43:44;;;;;;;5.82;2.30;;;;;;;23.54;41.39;102068.81;4846750;29;20049;-76
2022/06/15 06:46:09;;;;;;;8.23;2.28;;;;;;;23.56;41.21;102066.16;4847029;29;20040;-76
2022/06/15 06:48:35;;;;;;;5.25;2.20;;;;;;;23.60;41.26;102068.75;4846705;29;20033;-76
2022/06/15 06:51:00;;;;;;;6.82;2.10;;;;;;;23.59;41.37;102074.00;4831064;29;20057;-77
2022/06/15 06:53:26;;;;;;;5.20;2.00;;;;;;;23.59;41.66;102063.50;4846989;29;20560;-76
2022/06/15 06:55:51;;;;;;;3.92;1.83;;;;;;;23.60;41.81;102062.59;4846527;29;20034;-76
2022/06/15 06:58:16;;;;;;;3.65;2.10;;;;;;;23.64;41.35;102066.03;4862887;29;20033;-77
2022/06/15 07:00:42;;;;;;;4.70;2.08;;;;;;;23.67;41.73;102073.88;4862693;29;20035;-77
2022/06/15 07:03:08;;;;;;;4.43;1.90;;;;;;;23.67;41.52;102081.75;4846359;29;20052;-76
2022/06/15 07:05:35;;;;;;;8.30;2.58;;;;;;;23.72;41.39;102079.94;4862925;29;20030;-76
2022/06/15 07:08:01;;;;;;;5.63;2.33;;;;;;;23.71;41.34;102081.69;4847960;29;20030;-89
2022/06/15 07:10:27;;;;;;;3.42;1.77;;;;;;;23.72;41.35;102078.19;4848657;29;20500;-90
2022/06/15 07:12:53;;;;;;;4.03;2.00;;;;;;;23.74;41.37;102083.41;4869926;29;20039;-89
2022/06/15 07:15:20;;;;;;;5.43;2.00;;;;;;;23.75;41.28;102088.66;4853234;29;20159;-90
2022/06/15 07:17:45;;;;;;;4.78;2.10;;;;;;;23.81;40.88;102085.09;4852419;29;20029;-90
2022/06/15 07:20:11;;;;;;;4.22;2.17;;;;;;;23.84;41.00;102092.03;4866611;29;20034;-89
2022/06/15 07:22:38;;;;;;;5.32;1.98;;;;;;;23.88;40.93;102091.97;4847679;29;20029;-91
2022/06/15 07:25:05;;;;;;;4.82;1.98;;;;;;;23.89;41.00;102098.09;4864842;29;20107;-90
2022/06/15 07:27:36;;;;;;;3.78;1.95;;;;;;;23.88;41.05;102099.00;4848069;29;20041;-89
2022/06/15 07:30:05;;;;;;;3.80;2.03;;;;;;;23.91;40.63;102097.19;4847285;29;20055;-90
2022/06/15 07:32:31;;;;;;;4.80;2.00;;;;;;;23.91;40.62;102098.94;4863526;29;20033;-88
2022/06/15 07:34:58;;;;;;;4.15;2.08;;;;;;;23.91;40.82;102102.44;4847198;29;20025;-89
2022/06/15 07:37:23;;;;;;;4.35;1.90;;;;;;;23.91;40.77;102098.94;4831932;29;20068;-90
2022/06/15 07:39:49;;;;;;;5.50;1.98;;;;;;;23.94;40.68;102102.38;4831580;29;20061;-90
2022/06/15 07:42:14;;;;;;;5.18;2.03;;;;;;;23.95;40.83;102103.25;4847027;29;20029;-89
2022/06/15 07:44:40;;;;;;;3.75;1.80;;;;;;;23.93;40.63;102107.66;4846788;29;20559;-90
2022/06/15 07:49:55;;;;;;;5.32;2.00;;;;;;;23.91;41.02;102094.56;4882206;29;20520;-91
2022/06/15 07:52:29;;;;;;;4.53;1.95;;;;;;;23.96;40.57;102097.97;4847159;29;20045;-90
2022/06/15 07:54:55;;;;;;;4.35;1.85;;;;;;;23.93;41.04;102097.16;4863489;29;20052;-90
2022/06/15 07:57:21;;;;;;;5.82;2.05;;;;;;;23.93;40.99;102092.78;4846175;29;20029;-90
2022/06/15 07:59:47;;;;;;;5.82;1.65;;;;;;;23.94;40.64;102096.28;4846406;29;20025;-90
2022/06/15 08:02:13;;;;;;;5.50;1.90;;;;;;;23.94;40.71;102088.38;4831254;29;20369;-90
2022/06/15 08:04:38;;;;;;;4.00;1.95;;;;;;;23.95;40.75;102096.25;4862636;29;20040;-90
2022/06/15 08:07:09;;;;;;;3.92;1.80;;;;;;;23.97;40.73;102097.06;4830954;29;20061;-90
2022/06/15 08:09:36;;;;;;;4.10;1.70;;;;;;;23.95;40.73;102098.88;4862914;29;20029;-90
2022/06/15 08:12:11;;;;;;;4.68;1.92;;;;;;;23.95;40.75;102103.25;4846088;29;20052;-90
2022/06/15 08:14:40;;;;;;;6.72;1.77;;;;;;;23.95;40.46;102098.88;4832585;29;20033;-91
2022/06/15 08:17:09;;;;;;;5.00;2.20;;;;;;;23.95;40.81;102098.00;4880293;29;20025;-90
2022/06/15 08:19:37;;;;;;;4.10;1.67;;;;;;;23.94;40.65;102099.75;4845994;29;20079;-90
2022/06/15 08:22:03;;;;;;;4.50;1.80;;;;;;;23.95;40.42;102108.50;4862535;29;20025;-90
2022/06/15 08:24:31;;;;;;;3.28;1.85;;;;;;;23.93;40.66;102099.78;4845721;29;20182;-89
2022/06/15 08:26:57;;;;;;;3.65;1.80;;;;;;;23.72;40.94;102098.34;4831365;29;20030;-90
2022/06/15 08:29:23;;;;;;;3.92;2.05;;;;;;;23.84;40.76;102100.78;4846136;29;20113;-90
2022/06/15 08:31:48;;;;;;;3.20;1.67;;;;;;;23.90;40.73;102102.47;4830896;29;20117;-90
2022/06/15 08:34:13;;;;;;;2.33;1.30;;;;;;;23.88;40.80;102093.72;4864259;29;20063;-90
2022/06/15 08:36:40;;;;;;;3.80;1.60;;;;;;;23.88;40.51;102091.97;4846738;29;20030;-90
2022/06/15 08:39:05;;;;;;;3.97;1.65;;;;;;;23.86;40.73;102096.38;4830620;29;20380;-90
2022/06/15 08:41:48;;;;;;;2.97;1.58;;;;;;;23.86;40.89;102085.00;4846364;29;20025;-90
2022/06/15 08:44:48;;;;;;;4.60;1.80;;;;;;;23.86;40.49;102085.00;4862450;29;20033;-90
2022/06/15 08:47:51;;;;;;;3.17;1.50;;;;;;;23.86;40.46;102085.00;4845724;29;20025;-90
2022/06/15 08:50:32;;;;;;;2.43;1.33;;;;;;;23.85;40.72;102091.16;4845428;29;20049;-89
2022/06/15 08:53:42;;;;;;;3.03;1.50;;;;;;;23.84;40.33;102090.28;4845383;29;20034;-90
2022/06/15 08:56:14;;;;;;;2.70;1.48;;;;;;;23.84;40.96;102084.16;4828593;29;20048;-90
2022/06/15 08:58:50;;;;;;;4.90;1.60;;;;;;;23.83;40.65;102091.19;4845316;29;20426;-89
2022/06/15 09:01:28;;;;;;;5.57;1.80;;;;;;;23.83;40.55;102092.94;4845468;29;20029;-89
2022/06/15 09:04:19;;;;;;;2.35;1.52;;;;;;;23.80;40.53;102089.47;4861952;29;20477;-90
2022/06/15 09:07:17;;;;;;;3.53;1.67;;;;;;;23.78;40.43;102093.88;4799825;29;20041;-91
2022/06/15 09:09:48;;;;;;;3.80;1.60;;;;;;;23.76;40.43;102087.78;4864989;29;20425;-90
2022/06/15 09:15:38;;;;;;;3.13;1.50;;;;;;;23.75;40.32;102082.50;4865995;29;20057;-90
2022/06/15 09:18:14;;;;;;;2.70;1.48;;;;;;;23.77;40.50;102075.50;4849058;29;20029;-91
2022/06/15 09:20:54;;;;;;;3.10;1.50;;;;;;;23.77;40.72;102079.00;4849099;29;20093;-90
2022/06/15 09:23:34;;;;;;;2.58;1.48;;;;;;;23.74;40.64;102073.75;4865512;29;20480;-90
2022/06/15 09:26:09;;;;;;;2.08;1.33;;;;;;;23.73;40.75;102072.00;4865703;29;20054;-91
2022/06/15 09:28:44;;;;;;;2.22;1.25;;;;;;;23.71;40.71;102065.06;4856900;29;20029;-89
2022/06/15 09:31:16;;;;;;;2.70;1.50;;;;;;;23.70;40.81;102073.84;4856486;29;20029;-90
2022/06/15 09:33:49;;;;;;;2.80;1.60;;;;;;;23.71;40.50;102068.53;4849243;29;20029;-90
2022/06/15 09:36:21;;;;;;;3.17;1.42;;;;;;;23.67;40.94;102069.50;4848722;29;20033;-89
2022/06/15 09:38:47;;;;;;;3.00;1.50;;;;;;;23.66;40.92;102073.00;4865060;29;20488;-89
2022/06/15 09:41:37;;;;;;;2.97;1.33;;;;;;;23.65;40.76;102067.78;4865613;29;20033;-88
2022/06/15 09:44:40;;;;;;;4.35;1.40;;;;;;;23.65;40.43;102063.41;4848417;29;20441;-89
2022/06/15 09:47:26;;;;;;;5.37;1.50;;;;;;;23.62;40.99;102073.94;4837593;29;20070;-89
2022/06/15 09:50:15;;;;;;;2.80;1.50;;;;;;;23.59;40.73;102082.75;4865046;29;20654;-88
2022/06/15 09:52:49;;;;;;;3.70;1.67;;;;;;;23.57;40.72;102075.78;4849083;29;20034;-89
2022/06/15 09:55:32;;;;;;;3.70;1.42;;;;;;;23.54;39.92;102074.06;4866884;29;20025;-89
2022/06/15 09:58:01;;;;;;;3.88;1.65;;;;;;;23.53;40.07;102076.72;4867340;29;20033;-89
2022/06/15 10:00:28;;;;;;;3.28;1.50;;;;;;;23.52;40.70;102085.50;4819065;29;20043;-89
2022/06/15 10:02:59;;;;;;;3.47;1.70;;;;;;;23.53;40.25;102084.59;4832180;29;20029;-76
2022/06/15 10:05:28;;;;;;;3.42;1.50;;;;;;;23.50;40.46;102082.03;4847344;29;20426;-76
2022/06/15 10:07:58;;;;;;;6.55;1.50;;;;;;;23.48;40.04;102074.16;4847230;29;20105;-76
2022/06/15 10:10:27;;;;;;;2.35;1.60;;;;;;;23.49;40.02;102082.91;4847180;29;20434;-76
2022/06/15 10:12:59;;;;;;;3.42;1.50;;;;;;;23.46;40.28;102081.19;4847220;29;20066;-77
2022/06/15 10:15:34;;;;;;;4.28;1.42;;;;;;;23.46;39.56;102080.34;4847211;29;20033;-89
2022/06/15 10:18:14;;;;;;;2.40;1.33;;;;;;;23.45;39.69;102086.47;4848306;29;20047;-90
2022/06/15 10:20:41;;;;;;;5.75;1.67;;;;;;;23.43;39.82;102078.63;4848439;29;20484;-90
2022/06/15 10:23:21;;;;;;;3.55;1.40;;;;;;;23.43;40.68;102089.13;4881173;29;20048;-87
2022/06/15 10:25:55;;;;;;;2.90;1.45;;;;;;;23.41;40.38;102091.78;4874406;29;20033;-90
2022/06/15 10:28:25;;;;;;;3.28;1.35;;;;;;;23.44;40.24;102082.13;4847861;29;20021;-90
2022/06/15 10:31:04;;;;;;;3.15;1.40;;;;;;;23.41;40.40;102086.53;4847758;29;20473;-90
2022/06/15 10:33:40;;;;;;;5.25;1.60;;;;;;;23.41;39.38;102090.91;4847749;29;20199;-89
2022/06/15 10:36:20;;;;;;;3.85;1.58;;;;;;;23.41;39.00;102088.28;4847611;29;20030;-89
2022/06/15 10:38:52;;;;;;;4.63;1.60;;;;;;;23.40;39.57;102097.03;4847922;29;20026;-89
2022/06/15 10:44:02;;;;;;;5.50;1.25;;;;;;;23.40;38.81;102086.53;4864605;29;20060;-88
2022/06/15 10:46:49;;;;;;;4.80;1.55;;;;;;;23.39;38.78;102079.56;4848429;29;20484;-90
2022/06/15 10:49:15;;;;;;;7.47;1.75;;;;;;;23.42;37.80;102090.88;4847958;29;20064;-89
2022/06/15 10:51:40;;;;;;;6.70;2.00;;;;;;;23.40;36.80;102084.78;4864143;29;20136;-89
2022/06/15 10:54:33;;;;;;;6.57;1.63;;;;;;;23.40;38.00;102083.91;4832649;29;20034;-90
2022/06/15 11:03:07;;;;;;;3.40;1.40;;;;;;;23.38;37.69;102070.78;4884304;29;20028;-89
2022/06/15 11:05:33;;;;;;;5.82;1.98;;;;;;;23.42;36.21;102082.13;4847425;29;20036;-89
2022/06/15 11:08:04;;;;;;;5.13;1.80;;;;;;;23.39;37.55;102077.78;4831841;29;20033;-89
2022/06/15 11:10:31;;;;;;;6.80;1.90;;;;;;;23.40;35.61;102074.25;4863932;29;20040;-89
2022/06/15 11:13:34;;;;;;;3.55;1.70;;;;;;;23.41;37.78;102077.78;4846995;29;20061;-90
2022/06/15 11:19:19;;;;;;;3.65;1.35;;;;;;;23.41;37.78;102080.41;4866455;29;20116;-87
2022/06/15 11:21:53;;;;;;;4.38;1.58;;;;;;;23.41;37.45;102069.91;4847199;29;20057;-91
2022/06/15 11:24:21;;;;;;;2.97;1.30;;;;;;;23.41;37.73;102073.38;4863874;29;20040;-91
2022/06/15 11:26:55;;;;;;;4.72;1.50;;;;;;;23.41;37.31;102067.28;4846942;29;20033;-91
2022/06/15 11:29:36;;;;;;;6.15;1.80;;;;;;;23.42;35.75;102061.13;4847081;29;20037;-92
2022/06/15 11:32:17;;;;;;;6.55;1.95;;;;;;;23.44;35.63;102048.81;4862980;29;20102;-91
2022/06/15 11:35:06;;;;;;;6.07;1.90;;;;;;;23.45;35.81;102054.94;4863444;29;20038;-91
2022/06/15 11:37:44;;;;;;;5.32;1.70;;;;;;;23.44;35.61;102058.47;4863745;29;20021;-90
2022/06/15 11:40:41;;;;;;;5.68;1.73;;;;;;;23.46;37.37;102060.19;4846987;29;20029;-90
2022/06/15 11:43:33;;;;;;;3.33;1.50;;;;;;;23.46;37.00;102056.69;4846386;29;20048;-89
2022/06/15 11:46:10;;;;;;;5.45;1.50;;;;;;;23.45;37.39;102041.81;4846349;29;20125;-90
2022/06/15 11:48:59;;;;;;;4.35;2.00;;;;;;;23.45;34.98;102047.06;4846667;29;20058;-90
2022/06/15 11:51:30;;;;;;;5.15;2.00;;;;;;;23.42;36.00;102047.97;4862900;29;20449;-90
2022/06/15 11:54:05;;;;;;;4.07;1.50;;;;;;;23.44;37.58;102046.19;4846338;29;20540;-90
2022/06/15 11:56:37;;;;;;;4.07;1.48;;;;;;;23.45;37.22;102053.19;4862955;29;20089;-91
2022/06/15 11:59:16;;;;;;;4.45;1.77;;;;;;;23.47;37.14;102064.53;4862702;29;20033;-91
2022/06/15 12:01:59;;;;;;;3.78;1.70;;;;;;;23.50;36.64;102063.63;4845434;29;20081;-77